Current Weather

Norman Y Mineta San Jose Intl

San Jose, California (KSJC)

Report from: Wednesday, May 29, 2024 1:53 AM PDT
Current time: Wednesday, May 29, 2024 2:37 AM PDT

Nearby weather – Weather history – Daily summaries
Weather forecast

Temperature15.6°C (60.1°F)
Dew point8.3°C (46.9°F)
Winds 3 kts (1.5 m/s, 3.5 mph) Northwest (320°)
Visibility10 mi. (16.1 km)
Clouds Sky clear
Altimeter30.08 in.Hg (1019 mB)
Relative humidity62 %
Density altitude47 ft. (14 m)
Sea-level pressure101.9 kPa (1019 mB, 30.08 in.Hg)
Remarks Fully automated report
Automated weather observing station with precipitation discriminator
Pressure falling
Flight conditions Visual Meteorological Conditions
Raw dataKSJC 290853Z AUTO 32003KT 10SM CLR 16/08 A3008 RMK AO2 SLP186 T01560083 57002
An error has occurred. This application may no longer respond until reloaded. Reload 🗙